Data for 01/26/2018

Time Sea-Level Adjusted Pressure Absolute Pressure Temperature Relative Humidity Dew Point   
(mb) (inHg) (mb) (inHg) (C) (F) (%) (C) (F)
00:05 1012 29.88 841 24.83 -4 24.7 85 -6.2 20.9
00:10 1012 29.88 841 24.83 -3.9 24.9 83 -6.5 20.3
00:15 1012 29.88 841 24.83 -3.7 25.3 79 -6.8 19.8
00:20 1012 29.88 841 24.83 -3.6 25.6 76 -7.2 19
00:25 1012 29.88 841 24.83 -3.5 25.7 75 -7.3 18.8
00:30 1012 29.88 841 24.83 -3.3 26.1 59 -10.2 13.6
00:35 1012 29.88 841 24.83 -2.7 27.1 51 -11.5 11.4
00:40 1012 29.88 841 24.83 -2.4 27.7 48 -11.9 10.6
00:45 1012 29.88 841 24.83 -2.3 27.9 51 -11.2 11.8
00:50 1012 29.88 841 24.83 -2.3 27.8 50 -11.3 11.6
00:55 1012 29.88 841 24.83 -2.3 27.9 50 -11.3 11.7
01:00 1012 29.88 841 24.83 -2.3 27.9 50 -11.4 11.4
01:05 1012 29.88 841 24.83 -2.3 27.9 52 -11 12.2
01:10 1012 29.88 841 24.83 -2.3 27.8 49 -11.8 10.8
01:15 1012 29.88 841 24.83 -2.3 27.9 51 -11 12.2
01:20 1012 29.88 841 24.83 -2.3 27.9 50 -11.2 11.8
01:25 1012 29.88 841 24.83 -2.3 27.9 50 -11.5 11.4
01:30 1012 29.88 841 24.83 -2.2 28 50 -11.3 11.6
01:35 1012 29.88 841 24.83 -2.2 28 50 -11.4 11.5
01:40 1012 29.88 841 24.83 -2.2 28 50 -11.2 11.8
01:45 1012 29.88 841 24.83 -2.2 28.1 47 -12 10.3
01:50 1012 29.88 841 24.83 -2.1 28.3 48 -11.7 11
01:55 1012 29.88 841 24.83 -2.1 28.3 46 -12.2 10
02:00 1012 29.88 841 24.83 -2 28.4 46 -12 10.3
02:05 1012 29.88 841 24.83 -2.1 28.2 46 -12.2 10
02:10 1012 29.88 842 24.86 -2.1 28.3 46 -12.2 10
02:15 1012 29.88 842 24.86 -2 28.3 45 -12.3 9.8
02:20 1012 29.88 842 24.86 -2 28.5 45 -12.5 9.6
02:25 1013 29.91 842 24.86 -2 28.4 46 -12.2 10.1
02:30 1013 29.91 842 24.86 -2.1 28.2 46 -12.4 9.7
02:35 1013 29.91 842 24.86 -2.3 27.9 46 -12.5 9.5
02:40 1013 29.91 842 24.86 -2.3 27.8 47 -12.1 10.1
02:45 1013 29.91 842 24.86 -2.4 27.7 47 -12.1 10.1
02:50 1013 29.91 842 24.86 -2.5 27.5 48 -12 10.5
02:55 1013 29.91 842 24.86 -2.7 27.2 49 -12.1 10.2
03:00 1013 29.91 842 24.86 -2.6 27.3 47 -12.4 9.7
03:05 1013 29.91 842 24.86 -2.6 27.2 47 -12.3 9.8
03:10 1013 29.91 842 24.86 -2.7 27.2 47 -12.5 9.5
03:15 1013 29.91 842 24.86 -2.8 27 49 -12.2 10.1
03:20 1013 29.91 842 24.86 -2.9 26.8 48 -12.4 9.8
03:25 1013 29.91 842 24.86 -3 26.6 49 -12.4 9.7
03:30 1013 29.91 842 24.86 -3.1 26.3 48 -12.8 9
03:35 1013 29.91 842 24.86 -3 26.5 47 -12.9 8.7
03:40 1013 29.91 842 24.86 -3.1 26.4 46 -13.1 8.4
03:45 1013 29.91 842 24.86 -3.1 26.5 46 -13.1 8.4
03:50 1013 29.91 843 24.89 -3.2 26.3 48 -12.8 9
03:55 1013 29.91 843 24.89 -3.3 26.1 46 -13.4 7.8
04:00 1013 29.91 843 24.89 -3 26.5 46 -13.2 8.3
04:05 1013 29.91 843 24.89 -3.1 26.4 45 -13.4 7.9
04:10 1013 29.91 843 24.89 -3.1 26.4 45 -13.4 7.8
04:15 1014 29.94 843 24.89 -3.1 26.3 45 -13.4 7.8
04:20 1014 29.94 843 24.89 -3.3 26.1 46 -13.2 8.2
04:25 1014 29.94 843 24.89 -3.4 25.9 47 -13.1 8.5
04:30 1014 29.94 843 24.89 -3.4 25.8 48 -13.1 8.5
04:35 1014 29.94 843 24.89 -3.4 25.9 47 -13.2 8.3
04:40 1014 29.94 843 24.89 -3.3 26.1 47 -13 8.5
04:45 1014 29.94 843 24.89 -3.4 25.9 48 -13 8.6
04:50 1014 29.94 843 24.89 -3.4 25.9 48 -12.9 8.9
04:55 1014 29.94 843 24.89 -3.3 26 48 -12.8 9
05:00 1014 29.94 843 24.89 -3.4 26 48 -12.8 9
05:05 1014 29.94 843 24.89 -3.5 25.7 50 -12.5 9.5
05:10 1014 29.94 843 24.89 -3.7 25.4 51 -12.4 9.7
05:15 1014 29.94 843 24.89 -3.8 25.2 51 -12.5 9.5
05:20 1014 29.94 844 24.92 -3.8 25.2 51 -12.5 9.4
05:25 1014 29.94 844 24.92 -3.7 25.3 52 -12.3 9.9
05:30 1014 29.94 844 24.92 -3.8 25.1 51 -12.5 9.6
05:35 1014 29.94 844 24.92 -3.7 25.3 51 -12.5 9.4
05:40 1015 29.97 844 24.92 -3.8 25.2 50 -12.6 9.3
05:45 1015 29.97 844 24.92 -3.8 25.1 51 -12.5 9.6
05:50 1015 29.97 844 24.92 -3.9 25 52 -12.3 9.9
05:55 1015 29.97 844 24.92 -3.9 25 51 -12.6 9.2
06:00 1015 29.97 844 24.92 -4 24.9 52 -12.5 9.4
06:05 1015 29.97 844 24.92 -4 24.8 51 -12.7 9.1
06:10 1015 29.97 844 24.92 -4 24.7 50 -13.1 8.4
06:15 1015 29.97 844 24.92 -4 24.9 49 -13.1 8.4
06:20 1015 29.97 844 24.92 -3.9 25 48 -13.3 8
06:25 1015 29.97 844 24.92 -3.8 25.2 48 -13.3 8
06:30 1015 29.97 844 24.92 -3.7 25.3 47 -13.4 7.9
06:35 1015 29.97 844 24.92 -3.7 25.3 47 -13.4 7.8
06:40 1015 29.97 845 24.95 -3.7 25.3 47 -13.5 7.6
06:45 1015 29.97 845 24.95 -3.7 25.4 47 -13.5 7.7
06:50 1015 29.97 845 24.95 -3.6 25.5 47 -13.3 8
06:55 1016 30 845 24.95 -3.7 25.3 47 -13.4 7.8
07:00 1016 30 845 24.95 -3.7 25.4 46 -13.7 7.4
07:05 1016 30 845 24.95 -3.5 25.6 47 -13.3 8
07:10 1016 30 845 24.95 -3.5 25.7 46 -13.4 7.8
07:15 1016 30 845 24.95 -3.5 25.7 47 -13.2 8.3
07:20 1016 30 845 24.95 -3.4 25.8 49 -12.8 9
07:25 1016 30 845 24.95 -3.5 25.7 48 -12.9 8.8
07:30 1016 30 845 24.95 -3.3 26 45 -13.7 7.3
07:35 1016 30 845 24.95 -3.1 26.4 45 -13.5 7.7
07:40 1016 30 845 24.95 -3.1 26.5 45 -13.5 7.7
07:45 1016 30 845 24.95 -3.1 26.5 46 -13.2 8.2
07:50 1016 30 845 24.95 -3 26.6 43 -13.9 7
07:55 1016 30 845 24.95 -2.9 26.8 43 -13.7 7.3
08:00 1016 30 845 24.95 -2.9 26.8 44 -13.4 7.8
08:05 1016 30 845 24.95 -2.9 26.8 43 -13.8 7.2
08:10 1016 30 845 24.95 -2.9 26.7 44 -13.4 7.8
08:15 1016 30 845 24.95 -2.9 26.8 44 -13.4 7.9
08:20 1016 30 846 24.98 -2.8 26.9 43 -13.6 7.5
08:25 1016 30 846 24.98 -2.8 26.9 45 -13.2 8.2
08:30 1016 30 846 24.98 -2.7 27.1 43 -13.5 7.6
08:35 1016 30 846 24.98 -2.7 27.1 43 -13.7 7.4
08:40 1016 30 846 24.98 -2.6 27.2 42 -13.9 6.9
08:45 1016 30 846 24.98 -2.5 27.5 40 -14.3 6.2
08:50 1017 30.03 846 24.98 -2.5 27.6 41 -14.1 6.6
08:55 1017 30.03 846 24.98 -2.6 27.3 43 -13.6 7.5
09:00 1017 30.03 846 24.98 -2.6 27.2 44 -13.3 8
09:05 1017 30.03 846 24.98 -2.6 27.3 43 -13.7 7.4
09:10 1017 30.03 846 24.98 -2.6 27.4 42 -13.8 7.1
09:15 1017 30.03 846 24.98 -2.4 27.7 40 -14.3 6.2
09:20 1017 30.03 846 24.98 -2.3 27.9 40 -14.1 6.6
09:25 1017 30.03 846 24.98 -2.2 28 40 -14.1 6.6
09:30 1017 30.03 846 24.98 -2.2 28 39 -14.4 6.1
09:35 1017 30.03 846 24.98 -2.2 28.1 39 -14.2 6.4
09:40 1017 30.03 846 24.98 -2.2 28 39 -14.3 6.3
09:45 1017 30.03 846 24.98 -2.3 27.9 40 -14.3 6.3
09:50 1017 30.03 846 24.98 -2.3 27.8 40 -14.2 6.4
09:55 1017 30.03 846 24.98 -2.5 27.5 41 -14.1 6.6
10:00 1017 30.03 846 24.98 -2.5 27.5 40 -14.5 5.9
10:05 1017 30.03 846 24.98 -2.2 28 39 -14.5 5.8
10:10 1017 30.03 846 24.98 -2.3 27.8 40 -14.2 6.4
10:15 1017 30.03 846 24.98 -2.4 27.7 40 -14.2 6.4
10:20 1017 30.03 846 24.98 -2.2 28.1 39 -14.3 6.2
10:25 1017 30.03 846 24.98 -1.9 28.6 39 -14.2 6.4
10:30 1017 30.03 846 24.98 -1.9 28.6 40 -13.9 7
10:35 1017 30.03 846 24.98 -1.8 28.7 41 -13.5 7.8
10:40 1017 30.03 846 24.98 -1.7 28.9 41 -13.3 8.1
10:45 1017 30.03 846 24.98 -1.5 29.3 40 -13.4 8
10:50 1017 30.03 846 24.98 -1.3 29.7 40 -13.1 8.4
10:55 1017 30.03 846 24.98 -1.3 29.7 40 -13.1 8.4
11:00 1017 30.03 846 24.98 -1.3 29.7 40 -13.4 7.9
11:05 1017 30.03 846 24.98 -1.1 30 40 -13 8.6
11:10 1017 30.03 846 24.98 -0.9 30.4 39 -13.3 8.1
11:15 1017 30.03 847 25.01 -0.8 30.6 40 -12.9 8.8
11:20 1017 30.03 847 25.01 -0.6 31 40 -12.6 9.3
11:25 1017 30.03 847 25.01 -0.6 31 40 -12.7 9.2
11:30 1017 30.03 846 24.98 -0.5 31.2 39 -12.7 9.2
11:35 1017 30.03 846 24.98 -0.3 31.4 42 -11.8 10.7
11:40 1017 30.03 846 24.98 -0.2 31.6 39 -12.5 9.6
11:45 1017 30.03 846 24.98 -0.3 31.5 40 -12.2 10
11:50 1017 30.03 846 24.98 -0.4 31.3 40 -12.4 9.6
11:55 1017 30.03 846 24.98 -0.2 31.7 39 -12.4 9.6
12:00 1017 30.03 846 24.98 0.3 32.5 39 -12.1 10.1
12:05 1017 30.03 846 24.98 0.6 33 39 -11.8 10.8
12:10 1017 30.03 846 24.98 0.5 32.9 37 -12.7 9.1
12:15 1017 30.03 846 24.98 0.6 33 39 -11.9 10.5
12:20 1017 30.03 846 24.98 0.7 33.2 37 -12.3 9.8
12:25 1017 30.03 846 24.98 0.4 32.7 38 -12.2 10.1
12:30 1017 30.03 846 24.98 -0.1 31.9 39 -12.4 9.7
12:35 1017 30.03 846 24.98 -0.2 31.7 40 -12.3 9.9
12:40 1017 30.03 846 24.98 -0.3 31.5 40 -12.2 10
12:45 1017 30.03 846 24.98 -0.3 31.5 40 -12.3 9.8
12:50 1017 30.03 846 24.98 -0.2 31.6 42 -11.7 10.9
12:55 1017 30.03 846 24.98 -0.1 31.9 42 -11.6 11.1
13:00 1017 30.03 846 24.98 -0.1 31.9 40 -12 10.4
13:05 1017 30.03 846 24.98 0.6 33 39 -11.8 10.7
13:10 1017 30.03 846 24.98 0.5 32.8 40 -11.6 11.1
13:15 1017 30.03 846 24.98 0.5 33 41 -11.3 11.7
13:20 1017 30.03 846 24.98 0.3 32.6 40 -11.8 10.8
13:25 1017 30.03 846 24.98 0.4 32.6 39 -12 10.4
13:30 1017 30.03 846 24.98 0.6 33.1 40 -11.6 11.1
13:35 1017 30.03 846 24.98 1.1 33.9 39 -11.5 11.3
13:40 1017 30.03 846 24.98 1 33.8 39 -11.4 11.5
13:45 1016 30 846 24.98 1.3 34.4 38 -11.5 11.3
13:50 1016 30 846 24.98 0.9 33.7 39 -11.4 11.5
13:55 1016 30 846 24.98 0.7 33.2 41 -11.2 11.8
14:00 1016 30 846 24.98 0.1 32.2 45 -10.6 13
14:05 1016 30 846 24.98 0.1 32.1 45 -10.6 12.9
14:10 1017 30.03 846 24.98 0.2 32.3 45 -10.3 13.5
14:15 1016 30 846 24.98 -0 31.9 45 -10.6 12.9
14:20 1017 30.03 846 24.98 -0 32 46 -10.4 13.2
14:25 1017 30.03 846 24.98 -0.2 31.7 46 -10.6 12.9
14:30 1017 30.03 846 24.98 -0.2 31.6 46 -10.4 13.3
14:35 1017 30.03 846 24.98 -0.3 31.5 46 -10.7 12.8
14:40 1017 30.03 846 24.98 -0.2 31.7 45 -10.7 12.7
14:45 1017 30.03 846 24.98 0.2 32.3 45 -10.4 13.2
14:50 1017 30.03 846 24.98 0.1 32.1 44 -10.7 12.7
14:55 1017 30.03 846 24.98 0.5 33 43 -10.7 12.7
15:00 1017 30.03 846 24.98 1.3 34.3 40 -10.8 12.5
15:05 1017 30.03 846 24.98 0.5 32.9 43 -10.7 12.7
15:10 1017 30.03 846 24.98 0.3 32.5 40 -11.7 11
15:15 1017 30.03 846 24.98 0.1 32.3 41 -11.7 10.9
15:20 1017 30.03 846 24.98 0.1 32.2 40 -12 10.4
15:25 1017 30.03 846 24.98 0.3 32.6 39 -12.2 10.1
15:30 1017 30.03 846 24.98 0.4 32.8 38 -12.1 10.1
15:35 1017 30.03 846 24.98 0.5 32.9 41 -11.2 11.8
15:40 1017 30.03 846 24.98 -0.1 31.8 48 -9.9 14.2
15:45 1017 30.03 846 24.98 -0.4 31.3 47 -10.4 13.3
15:50 1017 30.03 846 24.98 -0.4 31.3 47 -10.4 13.3
15:55 1017 30.03 846 24.98 -0.3 31.4 47 -10.4 13.3
16:00 1017 30.03 846 24.98 -0.3 31.4 49 -9.9 14.2
16:05 1017 30.03 846 24.98 -0.3 31.4 46 -10.5 13.2
16:10 1017 30.03 847 25.01 -0.3 31.4 48 -10 13.9
16:15 1017 30.03 847 25.01 -0.7 30.8 56 -8.4 16.9
16:20 1018 30.06 847 25.01 -1 30.2 62 -7.4 18.8
16:25 1018 30.06 847 25.01 -1.5 29.2 69 -6.4 20.4
16:30 1018 30.06 847 25.01 -1.9 28.5 73 -6.1 21
16:35 1018 30.06 847 25.01 -2.1 28.2 71 -6.7 19.9
16:40 1018 30.06 847 25.01 -1.8 28.8 65 -7.4 18.6
16:45 1018 30.06 847 25.01 -1.5 29.3 64 -7.6 18.4
16:50 1018 30.06 847 25.01 -1.4 29.5 58 -8.6 16.6
16:55 1018 30.06 847 25.01 -1.2 29.9 55 -9.1 15.7
17:00 1018 30.06 847 25.01 -1 30.2 49 -10.4 13.3
17:05 1018 30.06 847 25.01 -1 30.2 47 -11 12.2
17:10 1018 30.06 847 25.01 -1.1 30 48 -10.9 12.4
17:15 1018 30.06 848 25.04 -1.3 29.7 50 -10.5 13
17:20 1019 30.09 848 25.04 -1.5 29.3 51 -10.5 13.1
17:25 1019 30.09 848 25.04 -1.6 29 51 -10.4 13.2
17:30 1019 30.09 848 25.04 -1.7 28.9 52 -10.3 13.5
17:35 1019 30.09 848 25.04 -1.9 28.7 53 -10.3 13.5
17:40 1019 30.09 848 25.04 -2 28.5 54 -10.2 13.7
17:45 1019 30.09 848 25.04 -2 28.4 53 -10.4 13.4
17:50 1019 30.09 848 25.04 -2.1 28.3 52 -10.6 12.9
17:55 1019 30.09 848 25.04 -2.2 28.1 55 -10.1 13.8
18:00 1019 30.09 848 25.04 -2.3 27.9 57 -9.8 14.4
18:05 1019 30.09 848 25.04 -2.4 27.6 58 -9.5 14.8
18:10 1019 30.09 848 25.04 -2.5 27.5 58 -9.7 14.6
18:15 1019 30.09 848 25.04 -2.7 27.2 58 -9.9 14.3
18:20 1019 30.09 848 25.04 -2.7 27.1 59 -9.6 14.7
18:25 1019 30.09 848 25.04 -2.7 27.1 58 -9.9 14.2
18:30 1019 30.09 848 25.04 -2.8 27 58 -10 14
18:35 1019 30.09 848 25.04 -2.6 27.3 58 -9.9 14.2
18:40 1019 30.09 848 25.04 -2.5 27.6 57 -9.9 14.1
18:45 1019 30.09 848 25.04 -2.4 27.6 56 -10.1 13.7
18:50 1019 30.09 848 25.04 -2.5 27.6 56 -10.1 13.9
18:55 1019 30.09 848 25.04 -2.4 27.7 56 -10.1 13.8
19:00 1019 30.09 849 25.07 -2.4 27.7 56 -10.1 13.8
19:05 1019 30.09 849 25.07 -2.4 27.6 54 -10.4 13.2
19:10 1019 30.09 849 25.07 -2.5 27.5 54 -10.5 13
19:15 1019 30.09 849 25.07 -2.5 27.4 55 -10.5 13.2
19:20 1019 30.09 849 25.07 -2.7 27.2 54 -10.6 12.9
19:25 1019 30.09 849 25.07 -2.8 27 54 -10.8 12.5
19:30 1019 30.09 849 25.07 -2.8 27 53 -11 12.3
19:35 1019 30.09 848 25.04 -2.7 27.2 51 -11.4 11.4
19:40 1019 30.09 848 25.04 -2.5 27.6 50 -11.4 11.4
19:45 1019 30.09 848 25.04 -2.5 27.5 50 -11.5 11.3
19:50 1019 30.09 848 25.04 -2.5 27.6 49 -11.7 11
19:55 1019 30.09 848 25.04 -2.5 27.6 48 -12 10.4
20:00 1019 30.09 848 25.04 -2.4 27.6 49 -11.8 10.7
20:05 1019 30.09 849 25.07 -2.5 27.5 48 -12 10.3
20:10 1019 30.09 849 25.07 -2.7 27.2 49 -11.8 10.7
20:15 1019 30.09 849 25.07 -2.7 27.1 50 -11.8 10.7
20:20 1019 30.09 849 25.07 -2.7 27.1 49 -11.9 10.5
20:25 1019 30.09 849 25.07 -2.7 27.2 50 -11.7 10.9
20:30 1019 30.09 849 25.07 -2.7 27.1 50 -11.7 10.9
20:35 1020 30.12 849 25.07 -2.8 27 50 -11.8 10.8
20:40 1020 30.12 849 25.07 -3 26.6 53 -11.2 11.8
20:45 1020 30.12 849 25.07 -3.2 26.3 53 -11.6 11.2
20:50 1020 30.12 849 25.07 -3.3 26 53 -11.5 11.3
20:55 1020 30.12 849 25.07 -3.4 25.8 54 -11.4 11.4
21:00 1020 30.12 849 25.07 -3.6 25.6 53 -11.7 10.9
21:05 1020 30.12 849 25.07 -3.6 25.5 51 -12.4 9.6
21:10 1020 30.12 849 25.07 -3.5 25.6 50 -12.5 9.5
21:15 1020 30.12 849 25.07 -3.6 25.5 51 -12.5 9.6
21:20 1020 30.12 849 25.07 -3.8 25.2 52 -12.3 9.8
21:25 1020 30.12 849 25.07 -3.8 25.1 51 -12.6 9.3
21:30 1020 30.12 849 25.07 -3.7 25.3 50 -12.7 9.1
21:35 1020 30.12 849 25.07 -3.7 25.3 51 -12.4 9.6
21:40 1020 30.12 849 25.07 -3.7 25.3 51 -12.5 9.6
21:45 1020 30.12 849 25.07 -3.7 25.3 49 -12.9 8.8
21:50 1020 30.12 849 25.07 -3.7 25.4 49 -12.9 8.9
21:55 1020 30.12 849 25.07 -3.7 25.3 47 -13.4 8
22:00 1020 30.12 849 25.07 -3.7 25.3 46 -13.7 7.3
22:05 1020 30.12 849 25.07 -3.7 25.3 47 -13.6 7.5
22:10 1020 30.12 849 25.07 -3.8 25.2 45 -14 6.8
22:15 1020 30.12 849 25.07 -3.7 25.3 43 -14.5 5.9
22:20 1020 30.12 849 25.07 -3.7 25.3 45 -14 6.7
22:25 1020 30.12 849 25.07 -3.8 25.1 44 -14.4 6.1
22:30 1020 30.12 849 25.07 -3.9 25 44 -14.4 6
22:35 1020 30.12 849 25.07 -3.5 25.8 41 -14.9 5.2
22:40 1020 30.12 849 25.07 -3.2 26.3 40 -15 5
22:45 1020 30.12 849 25.07 -3.2 26.3 42 -14.4 6.1
22:50 1020 30.12 849 25.07 -3.4 25.8 42 -14.6 5.8
22:55 1020 30.12 849 25.07 -3.6 25.5 42 -14.8 5.4
23:00 1020 30.12 849 25.07 -3.6 25.5 42 -14.9 5.2
23:05 1020 30.12 849 25.07 -3.6 25.6 40 -15.2 4.6
23:10 1020 30.12 849 25.07 -3.4 25.9 41 -14.9 5.2
23:15 1020 30.12 849 25.07 -3.4 25.9 41 -14.7 5.5
23:20 1020 30.12 849 25.07 -3.3 26 44 -14 6.8
23:25 1020 30.12 849 25.07 -3.4 25.8 45 -13.7 7.4
23:30 1020 30.12 850 25.1 -3.7 25.4 47 -13.5 7.7
23:35 1020 30.12 850 25.1 -3.8 25.1 45 -14.1 6.6
23:40 1020 30.12 850 25.1 -3.4 25.9 40 -15 4.9
23:45 1020 30.12 850 25.1 -2.8 26.9 39 -15.1 4.8
23:50 1020 30.12 850 25.1 -2.6 27.3 38 -15.1 4.9
23:55 1020 30.12 850 25.1 -2.7 27.2 38 -15.1 4.8
24:00 1020 30.12 850 25.1 -2.7 27.2 37 -15.4 4.4